createdAt,value
2022-11-24T00:08:07.311Z,2.1
2022-11-24T00:13:07.381Z,1.6
2022-11-24T00:18:07.345Z,2.0
2022-11-24T00:23:07.408Z,1.9
2022-11-24T00:28:07.430Z,1.5
2022-11-24T00:33:07.422Z,1.1
2022-11-24T00:38:07.418Z,1.2
2022-11-24T00:43:07.457Z,1.4
2022-11-24T00:48:08.687Z,2.0
2022-11-24T00:58:07.356Z,2.3
2022-11-24T01:03:07.483Z,2.9
2022-11-24T01:08:07.375Z,3.1
2022-11-24T01:13:07.334Z,1.3
2022-11-24T01:18:07.320Z,1.8
2022-11-24T01:23:07.260Z,3.0
2022-11-24T01:28:07.293Z,1.7
2022-11-24T01:33:07.257Z,2.4
2022-11-24T01:38:07.356Z,3.5
2022-11-24T01:43:07.210Z,2.0
2022-11-24T01:48:07.224Z,3.3
2022-11-24T01:53:07.332Z,1.8
2022-11-24T02:03:07.032Z,3.6
2022-11-24T02:08:06.942Z,3.1
2022-11-24T02:13:06.924Z,3.2
2022-11-24T02:18:06.931Z,3.0
2022-11-24T02:23:06.855Z,4.1
2022-11-24T02:28:06.751Z,3.0
2022-11-24T02:33:06.745Z,3.7
2022-11-24T02:43:06.664Z,3.1
2022-11-24T02:53:06.462Z,3.7
2022-11-24T02:58:06.406Z,4.8
2022-11-24T03:03:06.424Z,3.1
2022-11-24T03:08:10.277Z,3.6
2022-11-24T03:13:06.255Z,3.9
2022-11-24T03:18:06.128Z,4.6
2022-11-24T03:23:06.111Z,2.9
2022-11-24T03:28:06.029Z,3.0
2022-11-24T03:33:06.029Z,4.3
2022-11-24T03:43:05.825Z,4.5
2022-11-24T03:48:05.788Z,4.8
2022-11-24T03:53:05.731Z,3.7
2022-11-24T03:58:05.610Z,4.9
2022-11-24T04:03:05.589Z,4.2
2022-11-24T04:08:05.473Z,4.6
2022-11-24T04:13:05.445Z,3.2
2022-11-24T04:18:05.270Z,2.9
2022-11-24T04:28:05.061Z,3.4
2022-11-24T04:33:04.948Z,2.5
2022-11-24T04:38:04.837Z,3.6
2022-11-24T04:43:04.937Z,3.8
2022-11-24T04:48:04.674Z,3.4
2022-11-24T04:53:04.494Z,2.7
2022-11-24T04:58:04.369Z,5.4
2022-11-24T05:03:04.277Z,3.3
2022-11-24T05:08:04.209Z,3.2
2022-11-24T05:13:04.042Z,1.9
2022-11-24T05:18:03.958Z,3.8
2022-11-24T05:23:03.933Z,3.4
2022-11-24T05:28:06.316Z,3.3
2022-11-24T05:33:03.718Z,4.2
2022-11-24T05:38:03.612Z,2.8
2022-11-24T05:43:05.641Z,2.4
2022-11-24T05:48:03.469Z,3.4
2022-11-24T05:53:03.527Z,2.2
2022-11-24T05:58:05.325Z,3.2
2022-11-24T06:03:03.374Z,2.8
2022-11-24T06:08:03.257Z,2.0
2022-11-24T06:13:03.386Z,3.9
2022-11-24T06:18:03.090Z,2.6
2022-11-24T06:23:03.023Z,3.7
2022-11-24T06:28:03.221Z,3.9
2022-11-24T06:33:02.860Z,2.2
2022-11-24T06:38:02.750Z,4.5
2022-11-24T06:43:02.655Z,3.1
2022-11-24T06:48:04.681Z,2.8
2022-11-24T06:53:02.514Z,2.7
2022-11-24T06:58:02.469Z,2.6
2022-11-24T07:08:02.326Z,3.0
2022-11-24T07:18:02.160Z,5.4
2022-11-24T07:23:02.062Z,3.8
2022-11-24T07:28:01.906Z,5.2
2022-11-24T07:33:01.837Z,4.2
2022-11-24T07:38:01.772Z,3.4
2022-11-24T07:48:01.494Z,2.8
2022-11-24T07:53:03.391Z,4.7
2022-11-24T07:58:01.355Z,3.7
2022-11-24T08:03:01.173Z,3.5
2022-11-24T08:08:01.080Z,3.9
2022-11-24T08:13:01.156Z,4.4
2022-11-24T08:18:00.904Z,4.8
2022-11-24T08:23:00.844Z,4.4
2022-11-24T08:28:01.042Z,5.9
2022-11-24T08:33:00.720Z,9.7
2022-11-24T08:38:04.679Z,7.2
2022-11-24T08:43:00.649Z,9.3
2022-11-24T08:48:00.653Z,6.8
2022-11-24T08:53:00.623Z,5.0
2022-11-24T08:58:00.723Z,10.0
2022-11-24T09:03:00.873Z,4.1
2022-11-24T09:08:00.800Z,6.8
2022-11-24T09:13:00.819Z,6.6
2022-11-24T09:18:00.825Z,6.9
2022-11-24T09:23:00.899Z,10.3
2022-11-24T09:28:00.991Z,6.0
2022-11-24T09:33:00.914Z,8.4
2022-11-24T09:38:01.049Z,9.0
2022-11-24T09:43:01.243Z,6.9
2022-11-24T09:48:03.230Z,8.8
2022-11-24T09:53:01.250Z,6.5
2022-11-24T09:58:01.353Z,7.4
2022-11-24T10:03:01.466Z,6.7
2022-11-24T10:08:02.121Z,5.3
2022-11-24T10:13:01.683Z,6.6
2022-11-24T10:18:01.842Z,5.1
2022-11-24T10:23:01.931Z,5.8
2022-11-24T10:33:02.269Z,4.8
2022-11-24T10:38:02.612Z,4.1
2022-11-24T10:43:05.106Z,5.5
2022-11-24T10:48:02.628Z,6.8
2022-11-24T10:53:02.828Z,5.0
2022-11-24T10:58:03.296Z,5.7
2022-11-24T11:03:03.191Z,5.9
2022-11-24T11:08:05.674Z,4.6
2022-11-24T11:13:03.668Z,6.5
2022-11-24T11:18:03.616Z,4.2
2022-11-24T11:23:03.878Z,7.0
2022-11-24T11:28:08.598Z,5.6
2022-11-24T11:38:06.270Z,7.0
2022-11-24T11:43:04.487Z,6.4
2022-11-24T11:48:04.580Z,7.3
2022-11-24T11:53:04.748Z,6.6
2022-11-24T11:58:04.952Z,5.5
2022-11-24T12:08:09.414Z,5.9
2022-11-24T12:13:07.296Z,6.3
2022-11-24T12:18:05.441Z,6.5
2022-11-24T12:23:06.707Z,5.9
2022-11-24T12:28:07.773Z,4.5
2022-11-24T12:33:05.911Z,5.5
2022-11-24T12:43:06.186Z,7.3
2022-11-24T12:48:06.241Z,5.8
2022-11-24T12:53:06.424Z,6.0
2022-11-24T12:58:11.035Z,5.7
2022-11-24T13:03:06.768Z,5.2
2022-11-24T13:08:06.777Z,4.5
2022-11-24T13:13:06.879Z,7.7
2022-11-24T13:18:12.321Z,5.3
2022-11-24T13:23:10.712Z,9.5
2022-11-24T13:28:07.295Z,5.5
2022-11-24T13:33:08.253Z,6.3
2022-11-24T13:38:07.524Z,5.0
2022-11-24T13:43:09.127Z,8.2
2022-11-24T13:48:07.818Z,5.7
2022-11-24T13:53:07.915Z,7.3
2022-11-24T13:58:08.168Z,5.6
2022-11-24T14:03:08.225Z,5.4
2022-11-24T14:08:08.234Z,5.8
2022-11-24T14:13:08.524Z,5.7
2022-11-24T14:18:08.417Z,7.3
2022-11-24T14:23:08.665Z,5.5
2022-11-24T14:28:08.655Z,6.1
2022-11-24T14:33:11.266Z,5.8
2022-11-24T14:38:08.814Z,4.8
2022-11-24T14:43:10.949Z,3.8
2022-11-24T14:48:09.136Z,3.7
2022-11-24T14:53:09.213Z,4.0
2022-11-24T14:58:11.303Z,4.5
2022-11-24T15:03:09.392Z,2.9
2022-11-24T15:08:09.429Z,3.3
2022-11-24T15:13:09.656Z,2.3
2022-11-24T15:18:09.624Z,3.3
2022-11-24T15:23:09.723Z,2.9
2022-11-24T15:28:09.855Z,2.4
2022-11-24T15:33:09.889Z,4.1
2022-11-24T15:38:09.951Z,4.4
2022-11-24T15:43:10.095Z,3.6
2022-11-24T15:48:17.568Z,3.3
2022-11-24T15:53:10.202Z,4.5
2022-11-24T15:58:10.278Z,4.4
2022-11-24T16:03:44.568Z,3.6
2022-11-24T16:08:12.420Z,5.7
2022-11-24T16:13:10.469Z,5.8
2022-11-24T16:18:10.512Z,4.3
2022-11-24T16:23:10.602Z,5.0
2022-11-24T16:28:10.608Z,4.6
2022-11-24T16:33:12.686Z,5.0
2022-11-24T16:38:10.824Z,5.8
2022-11-24T16:43:10.804Z,5.5
2022-11-24T16:48:10.837Z,5.2
2022-11-24T16:53:10.934Z,6.6
2022-11-24T16:58:14.982Z,5.3
2022-11-24T17:03:10.984Z,6.2
2022-11-24T17:08:11.100Z,5.5
2022-11-24T17:13:11.118Z,3.1
2022-11-24T17:18:24.963Z,3.6
2022-11-24T17:23:11.141Z,3.0
2022-11-24T17:28:11.213Z,5.2
2022-11-24T17:33:11.244Z,5.0
2022-11-24T17:38:11.233Z,6.1
2022-11-24T17:43:11.278Z,4.3
2022-11-24T17:48:11.344Z,4.4
2022-11-24T17:53:13.296Z,5.9
2022-11-24T17:58:11.305Z,4.5
2022-11-24T18:03:15.414Z,4.3
2022-11-24T18:08:15.819Z,3.9
2022-11-24T18:12:30.522Z,3.9
2022-11-24T18:13:22.416Z,5.1
2022-11-24T18:18:11.370Z,7.0
2022-11-24T18:23:11.467Z,5.9
2022-11-24T18:28:11.336Z,3.8
2022-11-24T18:33:11.354Z,4.4
2022-11-24T18:38:11.317Z,6.3
2022-11-24T18:43:11.346Z,4.2
2022-11-24T18:48:11.303Z,3.3
2022-11-24T18:53:11.391Z,3.6
2022-11-24T18:58:11.383Z,2.5
2022-11-24T19:03:11.443Z,3.9
2022-11-24T19:08:13.413Z,2.8
2022-11-24T19:13:11.605Z,3.9
2022-11-24T19:18:11.403Z,6.6
2022-11-24T19:23:11.450Z,3.8
2022-11-24T19:28:11.437Z,2.9
2022-11-24T19:33:11.547Z,3.3
2022-11-24T19:38:14.917Z,2.7
2022-11-24T19:43:11.535Z,4.3
2022-11-24T19:48:13.936Z,3.6
2022-11-24T19:53:11.474Z,5.4
2022-11-24T19:58:14.046Z,4.2
2022-11-24T20:08:13.489Z,4.8
2022-11-24T20:13:11.542Z,4.1
2022-11-24T20:18:11.509Z,6.7
2022-11-24T20:23:11.544Z,5.5
2022-11-24T20:28:11.559Z,3.7
2022-11-24T20:33:11.517Z,4.3
2022-11-24T20:38:13.500Z,4.0
2022-11-24T20:43:11.613Z,3.1
2022-11-24T20:48:11.556Z,5.1
2022-11-24T20:53:14.141Z,4.4
2022-11-24T20:58:11.520Z,4.3
2022-11-24T21:03:11.803Z,2.8
2022-11-24T21:08:11.512Z,4.5
2022-11-24T21:13:11.832Z,3.3
2022-11-24T21:18:11.558Z,3.1
2022-11-24T21:23:11.561Z,5.7
2022-11-24T21:28:11.578Z,3.6
2022-11-24T21:33:13.622Z,3.3
2022-11-24T21:38:11.542Z,5.4
2022-11-24T21:43:11.574Z,3.6
2022-11-24T21:48:11.549Z,4.1
2022-11-24T21:53:11.554Z,4.4
2022-11-24T21:58:11.533Z,3.8
2022-11-24T22:03:11.533Z,3.4
2022-11-24T22:08:11.459Z,4.3
2022-11-24T22:13:11.441Z,3.8
2022-11-24T22:18:13.890Z,3.1
2022-11-24T22:23:11.391Z,3.0
2022-11-24T22:28:11.332Z,3.9
2022-11-24T22:33:13.329Z,3.7
2022-11-24T22:38:11.272Z,3.8
2022-11-24T22:43:11.231Z,6.0
2022-11-24T22:48:11.158Z,3.1
2022-11-24T22:53:11.113Z,4.7
2022-11-24T22:58:11.102Z,2.6
2022-11-24T23:03:13.315Z,4.3
2022-11-24T23:08:11.073Z,4.7
2022-11-24T23:13:11.091Z,5.0
2022-11-24T23:18:11.151Z,3.0
2022-11-24T23:23:11.191Z,3.2
2022-11-24T23:28:11.265Z,4.7
2022-11-24T23:38:11.109Z,3.7
2022-11-24T23:43:11.215Z,3.3
2022-11-24T23:48:11.307Z,2.8
2022-11-24T23:53:11.149Z,4.4
2022-11-24T23:58:11.141Z,5.0
